sensor_id;sensor_type;location;lat;lon;timestamp;temperature;humidity
9810;DHT22;4944;52.514;13.192;2023-07-29T00:00:46;19.20;99.90
9810;DHT22;4944;52.514;13.192;2023-07-29T00:03:13;19.20;99.90
9810;DHT22;4944;52.514;13.192;2023-07-29T00:05:41;19.20;99.90
9810;DHT22;4944;52.514;13.192;2023-07-29T00:08:08;19.20;99.90
9810;DHT22;4944;52.514;13.192;2023-07-29T00:10:36;19.20;99.90
9810;DHT22;4944;52.514;13.192;2023-07-29T00:13:03;19.20;99.90
9810;DHT22;4944;52.514;13.192;2023-07-29T00:15:31;19.20;99.90
9810;DHT22;4944;52.514;13.192;2023-07-29T00:17:58;19.10;99.90
9810;DHT22;4944;52.514;13.192;2023-07-29T00:20:25;19.10;99.90
9810;DHT22;4944;52.514;13.192;2023-07-29T00:22:53;19.10;99.90
9810;DHT22;4944;52.514;13.192;2023-07-29T00:25:20;19.20;99.90
9810;DHT22;4944;52.514;13.192;2023-07-29T00:27:47;19.10;99.90
9810;DHT22;4944;52.514;13.192;2023-07-29T00:30:14;19.10;99.90
9810;DHT22;4944;52.514;13.192;2023-07-29T00:32:41;19.10;99.90
9810;DHT22;4944;52.514;13.192;2023-07-29T00:35:08;19.10;99.90
9810;DHT22;4944;52.514;13.192;2023-07-29T00:37:35;19.20;99.90
9810;DHT22;4944;52.514;13.192;2023-07-29T00:40:09;19.10;99.90
9810;DHT22;4944;52.514;13.192;2023-07-29T00:42:39;19.20;99.90
9810;DHT22;4944;52.514;13.192;2023-07-29T00:45:08;19.10;99.90
9810;DHT22;4944;52.514;13.192;2023-07-29T00:47:35;19.10;99.90
9810;DHT22;4944;52.514;13.192;2023-07-29T00:50:03;19.10;99.90
9810;DHT22;4944;52.514;13.192;2023-07-29T00:52:30;19.10;99.90
9810;DHT22;4944;52.514;13.192;2023-07-29T00:54:57;19.10;99.90
9810;DHT22;4944;52.514;13.192;2023-07-29T00:57:25;19.10;99.90
9810;DHT22;4944;52.514;13.192;2023-07-29T00:59:52;19.00;99.90
9810;DHT22;4944;52.514;13.192;2023-07-29T01:02:19;19.00;99.90
9810;DHT22;4944;52.514;13.192;2023-07-29T01:04:52;19.00;99.90
9810;DHT22;4944;52.514;13.192;2023-07-29T01:07:22;19.00;99.90
9810;DHT22;4944;52.514;13.192;2023-07-29T01:09:55;19.00;99.90
9810;DHT22;4944;52.514;13.192;2023-07-29T01:12:32;19.00;99.90
9810;DHT22;4944;52.514;13.192;2023-07-29T01:15:07;19.00;99.90
9810;DHT22;4944;52.514;13.192;2023-07-29T01:17:42;19.00;99.90
9810;DHT22;4944;52.514;13.192;2023-07-29T01:20:13;19.00;99.90
9810;DHT22;4944;52.514;13.192;2023-07-29T01:22:40;19.00;99.90
9810;DHT22;4944;52.514;13.192;2023-07-29T01:25:09;19.00;99.90
9810;DHT22;4944;52.514;13.192;2023-07-29T01:27:36;19.00;99.90
9810;DHT22;4944;52.514;13.192;2023-07-29T01:30:04;19.00;99.90
9810;DHT22;4944;52.514;13.192;2023-07-29T01:32:37;19.00;99.90
9810;DHT22;4944;52.514;13.192;2023-07-29T01:35:13;18.90;99.90
9810;DHT22;4944;52.514;13.192;2023-07-29T01:37:42;18.90;99.90
9810;DHT22;4944;52.514;13.192;2023-07-29T01:40:12;18.90;99.90
9810;DHT22;4944;52.514;13.192;2023-07-29T01:42:39;18.80;99.90
9810;DHT22;4944;52.514;13.192;2023-07-29T01:45:07;18.80;99.90
9810;DHT22;4944;52.514;13.192;2023-07-29T01:47:33;18.80;99.90
9810;DHT22;4944;52.514;13.192;2023-07-29T01:50:00;18.80;99.90
9810;DHT22;4944;52.514;13.192;2023-07-29T01:52:29;18.80;99.90
9810;DHT22;4944;52.514;13.192;2023-07-29T01:54:55;18.80;99.90
9810;DHT22;4944;52.514;13.192;2023-07-29T01:57:24;18.80;99.90
9810;DHT22;4944;52.514;13.192;2023-07-29T01:59:51;18.70;99.90
9810;DHT22;4944;52.514;13.192;2023-07-29T02:02:17;18.70;99.90
9810;DHT22;4944;52.514;13.192;2023-07-29T02:04:44;18.70;99.90
9810;DHT22;4944;52.514;13.192;2023-07-29T02:07:16;18.70;99.90
9810;DHT22;4944;52.514;13.192;2023-07-29T02:09:43;18.70;99.90
9810;DHT22;4944;52.514;13.192;2023-07-29T02:12:10;18.70;99.90
9810;DHT22;4944;52.514;13.192;2023-07-29T02:14:39;18.70;99.90
9810;DHT22;4944;52.514;13.192;2023-07-29T02:17:05;18.60;99.90
9810;DHT22;4944;52.514;13.192;2023-07-29T02:19:33;18.60;99.90
9810;DHT22;4944;52.514;13.192;2023-07-29T02:22:00;18.70;99.90
9810;DHT22;4944;52.514;13.192;2023-07-29T02:24:26;18.70;99.90
9810;DHT22;4944;52.514;13.192;2023-07-29T02:26:53;18.70;99.90
9810;DHT22;4944;52.514;13.192;2023-07-29T02:29:20;18.60;99.90
9810;DHT22;4944;52.514;13.192;2023-07-29T02:31:49;18.70;99.90
9810;DHT22;4944;52.514;13.192;2023-07-29T02:34:16;18.60;99.90
9810;DHT22;4944;52.514;13.192;2023-07-29T02:36:43;18.70;99.90
9810;DHT22;4944;52.514;13.192;2023-07-29T02:39:11;18.70;99.90
9810;DHT22;4944;52.514;13.192;2023-07-29T02:41:38;18.60;99.90
9810;DHT22;4944;52.514;13.192;2023-07-29T02:44:05;18.60;99.90
9810;DHT22;4944;52.514;13.192;2023-07-29T02:46:32;18.60;99.90
9810;DHT22;4944;52.514;13.192;2023-07-29T02:49:02;18.60;99.90
9810;DHT22;4944;52.514;13.192;2023-07-29T02:51:29;18.60;99.90
9810;DHT22;4944;52.514;13.192;2023-07-29T02:53:56;18.50;99.90
9810;DHT22;4944;52.514;13.192;2023-07-29T02:56:23;18.50;99.90
9810;DHT22;4944;52.514;13.192;2023-07-29T02:58:50;18.50;99.90
9810;DHT22;4944;52.514;13.192;2023-07-29T03:01:18;18.40;99.90
9810;DHT22;4944;52.514;13.192;2023-07-29T03:03:45;18.40;99.90
9810;DHT22;4944;52.514;13.192;2023-07-29T03:06:14;18.40;99.90
9810;DHT22;4944;52.514;13.192;2023-07-29T03:08:41;18.40;99.90
9810;DHT22;4944;52.514;13.192;2023-07-29T03:11:08;18.30;99.90
9810;DHT22;4944;52.514;13.192;2023-07-29T03:13:35;18.40;99.90
9810;DHT22;4944;52.514;13.192;2023-07-29T03:16:06;18.40;99.90
9810;DHT22;4944;52.514;13.192;2023-07-29T03:18:33;18.40;99.90
9810;DHT22;4944;52.514;13.192;2023-07-29T03:21:00;18.40;99.90
9810;DHT22;4944;52.514;13.192;2023-07-29T03:23:29;18.40;99.90
9810;DHT22;4944;52.514;13.192;2023-07-29T03:25:56;18.50;99.90
9810;DHT22;4944;52.514;13.192;2023-07-29T03:28:24;18.50;99.90
9810;DHT22;4944;52.514;13.192;2023-07-29T03:30:52;18.50;99.90
9810;DHT22;4944;52.514;13.192;2023-07-29T03:33:19;18.50;99.90
9810;DHT22;4944;52.514;13.192;2023-07-29T03:35:46;18.50;99.90
9810;DHT22;4944;52.514;13.192;2023-07-29T03:38:13;18.50;99.90
9810;DHT22;4944;52.514;13.192;2023-07-29T03:40:42;18.50;99.90
9810;DHT22;4944;52.514;13.192;2023-07-29T03:43:09;18.50;99.90
9810;DHT22;4944;52.514;13.192;2023-07-29T03:45:37;18.50;99.90
9810;DHT22;4944;52.514;13.192;2023-07-29T03:48:05;18.50;99.90
9810;DHT22;4944;52.514;13.192;2023-07-29T03:50:33;18.50;99.90
9810;DHT22;4944;52.514;13.192;2023-07-29T03:53:00;18.50;99.90
9810;DHT22;4944;52.514;13.192;2023-07-29T03:55:27;18.50;99.90
9810;DHT22;4944;52.514;13.192;2023-07-29T03:57:57;18.50;99.90
9810;DHT22;4944;52.514;13.192;2023-07-29T04:00:24;18.50;99.90
9810;DHT22;4944;52.514;13.192;2023-07-29T04:02:51;18.50;99.90
9810;DHT22;4944;52.514;13.192;2023-07-29T04:05:18;18.50;99.90
9810;DHT22;4944;52.514;13.192;2023-07-29T04:07:45;18.50;99.90
9810;DHT22;4944;52.514;13.192;2023-07-29T04:10:13;18.50;99.90
9810;DHT22;4944;52.514;13.192;2023-07-29T04:12:40;18.50;99.90
9810;DHT22;4944;52.514;13.192;2023-07-29T04:15:09;18.50;99.90
9810;DHT22;4944;52.514;13.192;2023-07-29T04:17:36;18.50;99.90
9810;DHT22;4944;52.514;13.192;2023-07-29T04:20:03;18.50;99.90
9810;DHT22;4944;52.514;13.192;2023-07-29T04:22:30;18.50;99.90
9810;DHT22;4944;52.514;13.192;2023-07-29T04:24:57;18.60;99.90
9810;DHT22;4944;52.514;13.192;2023-07-29T04:27:24;18.60;99.90
9810;DHT22;4944;52.514;13.192;2023-07-29T04:29:51;18.60;99.90
9810;DHT22;4944;52.514;13.192;2023-07-29T04:32:19;18.60;99.90
9810;DHT22;4944;52.514;13.192;2023-07-29T04:34:46;18.70;99.90
9810;DHT22;4944;52.514;13.192;2023-07-29T04:37:13;18.60;99.90
9810;DHT22;4944;52.514;13.192;2023-07-29T04:39:40;18.60;99.90
9810;DHT22;4944;52.514;13.192;2023-07-29T04:42:07;18.60;99.90
9810;DHT22;4944;52.514;13.192;2023-07-29T04:44:33;18.60;99.90
9810;DHT22;4944;52.514;13.192;2023-07-29T04:47:00;18.70;99.90
9810;DHT22;4944;52.514;13.192;2023-07-29T04:49:29;18.70;99.90
9810;DHT22;4944;52.514;13.192;2023-07-29T04:51:55;18.70;99.90
9810;DHT22;4944;52.514;13.192;2023-07-29T04:54:22;18.80;99.90
9810;DHT22;4944;52.514;13.192;2023-07-29T04:56:49;18.80;99.90
9810;DHT22;4944;52.514;13.192;2023-07-29T04:59:16;18.80;99.90
9810;DHT22;4944;52.514;13.192;2023-07-29T05:01:43;18.80;99.90
9810;DHT22;4944;52.514;13.192;2023-07-29T05:04:10;18.80;99.90
9810;DHT22;4944;52.514;13.192;2023-07-29T05:06:38;18.80;99.90
9810;DHT22;4944;52.514;13.192;2023-07-29T05:09:14;18.80;99.90
9810;DHT22;4944;52.514;13.192;2023-07-29T05:11:42;18.90;99.90
9810;DHT22;4944;52.514;13.192;2023-07-29T05:14:09;18.90;99.90
9810;DHT22;4944;52.514;13.192;2023-07-29T05:16:36;18.90;99.90
9810;DHT22;4944;52.514;13.192;2023-07-29T05:19:03;18.90;99.90
9810;DHT22;4944;52.514;13.192;2023-07-29T05:21:30;18.90;99.90
9810;DHT22;4944;52.514;13.192;2023-07-29T05:23:58;19.00;99.90
9810;DHT22;4944;52.514;13.192;2023-07-29T05:26:25;18.90;99.90
9810;DHT22;4944;52.514;13.192;2023-07-29T05:28:52;19.00;99.90
9810;DHT22;4944;52.514;13.192;2023-07-29T05:31:19;19.00;99.90
9810;DHT22;4944;52.514;13.192;2023-07-29T05:33:45;19.00;99.90
9810;DHT22;4944;52.514;13.192;2023-07-29T05:36:12;19.00;99.90
9810;DHT22;4944;52.514;13.192;2023-07-29T05:38:39;19.00;99.90
9810;DHT22;4944;52.514;13.192;2023-07-29T05:41:07;19.00;99.90
9810;DHT22;4944;52.514;13.192;2023-07-29T05:43:34;19.00;99.90
9810;DHT22;4944;52.514;13.192;2023-07-29T05:46:01;19.00;99.90
9810;DHT22;4944;52.514;13.192;2023-07-29T05:48:28;19.10;99.90
9810;DHT22;4944;52.514;13.192;2023-07-29T05:50:55;19.10;99.90
9810;DHT22;4944;52.514;13.192;2023-07-29T05:53:22;19.20;99.90
9810;DHT22;4944;52.514;13.192;2023-07-29T05:55:49;19.20;99.90
9810;DHT22;4944;52.514;13.192;2023-07-29T05:58:17;19.20;99.90
9810;DHT22;4944;52.514;13.192;2023-07-29T06:00:44;19.20;99.90
9810;DHT22;4944;52.514;13.192;2023-07-29T06:03:10;19.20;99.90
9810;DHT22;4944;52.514;13.192;2023-07-29T06:05:37;19.20;99.90
9810;DHT22;4944;52.514;13.192;2023-07-29T06:08:04;19.20;99.90
9810;DHT22;4944;52.514;13.192;2023-07-29T06:10:34;19.20;99.90
9810;DHT22;4944;52.514;13.192;2023-07-29T06:13:01;19.20;99.90
9810;DHT22;4944;52.514;13.192;2023-07-29T06:15:29;19.30;99.90
9810;DHT22;4944;52.514;13.192;2023-07-29T06:17:56;19.30;99.90
9810;DHT22;4944;52.514;13.192;2023-07-29T06:20:22;19.30;99.90
9810;DHT22;4944;52.514;13.192;2023-07-29T06:22:49;19.30;99.90
9810;DHT22;4944;52.514;13.192;2023-07-29T06:25:16;19.30;99.90
9810;DHT22;4944;52.514;13.192;2023-07-29T06:27:43;19.30;99.90
9810;DHT22;4944;52.514;13.192;2023-07-29T06:30:10;19.40;99.90
9810;DHT22;4944;52.514;13.192;2023-07-29T06:32:39;19.40;99.90
9810;DHT22;4944;52.514;13.192;2023-07-29T06:35:06;19.40;99.90
9810;DHT22;4944;52.514;13.192;2023-07-29T06:37:33;19.50;99.90
9810;DHT22;4944;52.514;13.192;2023-07-29T06:40:00;19.50;99.90
9810;DHT22;4944;52.514;13.192;2023-07-29T06:42:27;19.50;99.90
9810;DHT22;4944;52.514;13.192;2023-07-29T06:44:54;19.60;99.90
9810;DHT22;4944;52.514;13.192;2023-07-29T06:47:21;19.70;99.90
9810;DHT22;4944;52.514;13.192;2023-07-29T06:49:49;19.70;99.90
9810;DHT22;4944;52.514;13.192;2023-07-29T06:52:16;19.90;99.90
9810;DHT22;4944;52.514;13.192;2023-07-29T06:54:43;19.90;99.90
9810;DHT22;4944;52.514;13.192;2023-07-29T06:57:09;19.90;99.90
9810;DHT22;4944;52.514;13.192;2023-07-29T06:59:36;20.00;99.90
9810;DHT22;4944;52.514;13.192;2023-07-29T07:02:04;20.00;99.90
9810;DHT22;4944;52.514;13.192;2023-07-29T07:04:31;20.10;99.90
9810;DHT22;4944;52.514;13.192;2023-07-29T07:06:59;20.10;99.90
9810;DHT22;4944;52.514;13.192;2023-07-29T07:09:26;20.10;99.90
9810;DHT22;4944;52.514;13.192;2023-07-29T07:11:53;20.20;99.90
9810;DHT22;4944;52.514;13.192;2023-07-29T07:14:20;20.30;99.90
9810;DHT22;4944;52.514;13.192;2023-07-29T07:16:46;20.40;99.90
9810;DHT22;4944;52.514;13.192;2023-07-29T07:19:13;20.40;99.90
9810;DHT22;4944;52.514;13.192;2023-07-29T07:21:40;20.40;99.90
9810;DHT22;4944;52.514;13.192;2023-07-29T07:24:08;20.40;99.90
9810;DHT22;4944;52.514;13.192;2023-07-29T07:26:35;20.40;99.90
9810;DHT22;4944;52.514;13.192;2023-07-29T07:29:02;20.40;99.90
9810;DHT22;4944;52.514;13.192;2023-07-29T07:31:33;20.50;99.90
9810;DHT22;4944;52.514;13.192;2023-07-29T07:34:00;20.60;99.90
9810;DHT22;4944;52.514;13.192;2023-07-29T07:36:28;20.60;99.90
9810;DHT22;4944;52.514;13.192;2023-07-29T07:38:55;20.60;99.90
9810;DHT22;4944;52.514;13.192;2023-07-29T07:41:24;20.70;99.90
9810;DHT22;4944;52.514;13.192;2023-07-29T07:43:50;20.70;99.90
9810;DHT22;4944;52.514;13.192;2023-07-29T07:46:17;20.70;99.90
9810;DHT22;4944;52.514;13.192;2023-07-29T07:48:44;20.80;99.90
9810;DHT22;4944;52.514;13.192;2023-07-29T07:51:11;20.80;99.90
9810;DHT22;4944;52.514;13.192;2023-07-29T07:53:38;20.80;99.90
9810;DHT22;4944;52.514;13.192;2023-07-29T07:56:06;20.90;99.90
9810;DHT22;4944;52.514;13.192;2023-07-29T07:58:34;21.00;99.90
9810;DHT22;4944;52.514;13.192;2023-07-29T08:01:02;21.20;99.90
9810;DHT22;4944;52.514;13.192;2023-07-29T08:03:30;21.20;99.90
9810;DHT22;4944;52.514;13.192;2023-07-29T08:05:56;21.30;99.90
9810;DHT22;4944;52.514;13.192;2023-07-29T08:08:24;21.30;99.90
9810;DHT22;4944;52.514;13.192;2023-07-29T08:10:52;21.20;99.90
9810;DHT22;4944;52.514;13.192;2023-07-29T08:13:19;21.30;99.90
9810;DHT22;4944;52.514;13.192;2023-07-29T08:15:48;21.30;99.90
9810;DHT22;4944;52.514;13.192;2023-07-29T08:18:15;21.40;99.90
9810;DHT22;4944;52.514;13.192;2023-07-29T08:20:50;21.40;99.90
9810;DHT22;4944;52.514;13.192;2023-07-29T08:23:18;21.50;99.90
9810;DHT22;4944;52.514;13.192;2023-07-29T08:25:45;21.60;99.90
9810;DHT22;4944;52.514;13.192;2023-07-29T08:28:16;21.60;99.90
9810;DHT22;4944;52.514;13.192;2023-07-29T08:30:43;21.70;99.90
9810;DHT22;4944;52.514;13.192;2023-07-29T08:33:11;21.60;99.90
9810;DHT22;4944;52.514;13.192;2023-07-29T08:35:38;21.60;99.90
9810;DHT22;4944;52.514;13.192;2023-07-29T08:38:05;21.60;99.90
9810;DHT22;4944;52.514;13.192;2023-07-29T08:40:32;21.70;99.90
9810;DHT22;4944;52.514;13.192;2023-07-29T08:43:04;21.80;99.90
9810;DHT22;4944;52.514;13.192;2023-07-29T08:45:35;21.80;99.90
9810;DHT22;4944;52.514;13.192;2023-07-29T08:48:03;21.70;99.90
9810;DHT22;4944;52.514;13.192;2023-07-29T08:50:33;21.70;99.90
9810;DHT22;4944;52.514;13.192;2023-07-29T08:53:03;21.70;99.90
9810;DHT22;4944;52.514;13.192;2023-07-29T08:55:31;21.60;99.90
9810;DHT22;4944;52.514;13.192;2023-07-29T08:57:59;21.60;99.90
9810;DHT22;4944;52.514;13.192;2023-07-29T09:00:27;21.60;99.90
9810;DHT22;4944;52.514;13.192;2023-07-29T09:02:54;21.50;99.90
9810;DHT22;4944;52.514;13.192;2023-07-29T09:05:21;21.60;99.90
9810;DHT22;4944;52.514;13.192;2023-07-29T09:07:51;21.60;99.90
9810;DHT22;4944;52.514;13.192;2023-07-29T09:10:21;21.70;99.90
9810;DHT22;4944;52.514;13.192;2023-07-29T09:12:49;21.80;99.90
9810;DHT22;4944;52.514;13.192;2023-07-29T09:15:27;21.90;99.90
9810;DHT22;4944;52.514;13.192;2023-07-29T09:17:55;21.90;99.90
9810;DHT22;4944;52.514;13.192;2023-07-29T09:20:26;22.10;99.90
9810;DHT22;4944;52.514;13.192;2023-07-29T09:22:57;22.10;99.90
9810;DHT22;4944;52.514;13.192;2023-07-29T09:25:25;22.20;99.90
9810;DHT22;4944;52.514;13.192;2023-07-29T09:27:52;22.20;99.90
9810;DHT22;4944;52.514;13.192;2023-07-29T09:30:19;22.20;99.90
9810;DHT22;4944;52.514;13.192;2023-07-29T09:32:46;22.20;99.90
9810;DHT22;4944;52.514;13.192;2023-07-29T09:35:13;22.20;99.90
9810;DHT22;4944;52.514;13.192;2023-07-29T09:37:40;22.30;99.90
9810;DHT22;4944;52.514;13.192;2023-07-29T09:40:14;22.20;99.90
9810;DHT22;4944;52.514;13.192;2023-07-29T09:42:48;22.20;99.90
9810;DHT22;4944;52.514;13.192;2023-07-29T09:45:20;22.30;99.90
9810;DHT22;4944;52.514;13.192;2023-07-29T09:47:47;22.20;99.90
9810;DHT22;4944;52.514;13.192;2023-07-29T09:50:15;22.30;99.90
9810;DHT22;4944;52.514;13.192;2023-07-29T09:52:42;22.40;99.90
9810;DHT22;4944;52.514;13.192;2023-07-29T09:55:12;22.60;99.90
9810;DHT22;4944;52.514;13.192;2023-07-29T09:57:40;22.70;99.90
9810;DHT22;4944;52.514;13.192;2023-07-29T10:00:10;22.60;99.90
9810;DHT22;4944;52.514;13.192;2023-07-29T10:02:38;22.60;99.90
9810;DHT22;4944;52.514;13.192;2023-07-29T10:05:06;22.60;99.90
9810;DHT22;4944;52.514;13.192;2023-07-29T10:07:35;22.60;99.90
9810;DHT22;4944;52.514;13.192;2023-07-29T10:10:04;22.60;99.90
9810;DHT22;4944;52.514;13.192;2023-07-29T10:12:34;22.60;99.90
9810;DHT22;4944;52.514;13.192;2023-07-29T10:15:03;22.60;99.90
9810;DHT22;4944;52.514;13.192;2023-07-29T10:17:31;22.50;99.90
9810;DHT22;4944;52.514;13.192;2023-07-29T10:20:00;22.40;99.90
9810;DHT22;4944;52.514;13.192;2023-07-29T10:22:36;22.30;99.90
9810;DHT22;4944;52.514;13.192;2023-07-29T10:25:04;22.20;99.90
9810;DHT22;4944;52.514;13.192;2023-07-29T10:27:42;22.10;99.90
9810;DHT22;4944;52.514;13.192;2023-07-29T10:30:11;22.10;99.90
9810;DHT22;4944;52.514;13.192;2023-07-29T10:32:42;22.00;99.90
9810;DHT22;4944;52.514;13.192;2023-07-29T10:35:10;21.90;99.90
9810;DHT22;4944;52.514;13.192;2023-07-29T10:37:38;22.00;99.90
9810;DHT22;4944;52.514;13.192;2023-07-29T10:40:07;22.10;99.90
9810;DHT22;4944;52.514;13.192;2023-07-29T10:42:36;22.20;99.90
9810;DHT22;4944;52.514;13.192;2023-07-29T10:45:20;22.40;99.90
9810;DHT22;4944;52.514;13.192;2023-07-29T10:47:47;22.40;99.90
9810;DHT22;4944;52.514;13.192;2023-07-29T10:50:19;22.40;99.90
9810;DHT22;4944;52.514;13.192;2023-07-29T10:52:50;22.40;99.90
9810;DHT22;4944;52.514;13.192;2023-07-29T10:55:26;22.30;99.90
9810;DHT22;4944;52.514;13.192;2023-07-29T10:58:09;22.20;99.90
9810;DHT22;4944;52.514;13.192;2023-07-29T11:00:38;22.10;99.90
9810;DHT22;4944;52.514;13.192;2023-07-29T11:03:06;21.80;99.90
9810;DHT22;4944;52.514;13.192;2023-07-29T11:05:44;20.70;99.90
9810;DHT22;4944;52.514;13.192;2023-07-29T11:08:17;20.20;99.90
9810;DHT22;4944;52.514;13.192;2023-07-29T11:10:57;20.10;99.90
9810;DHT22;4944;52.514;13.192;2023-07-29T11:13:27;19.90;99.90
9810;DHT22;4944;52.514;13.192;2023-07-29T11:15:55;19.90;99.90
9810;DHT22;4944;52.514;13.192;2023-07-29T11:18:26;20.10;99.90
9810;DHT22;4944;52.514;13.192;2023-07-29T11:20:54;20.20;99.90
9810;DHT22;4944;52.514;13.192;2023-07-29T11:23:27;19.70;99.90
9810;DHT22;4944;52.514;13.192;2023-07-29T11:25:54;19.90;99.90
9810;DHT22;4944;52.514;13.192;2023-07-29T11:28:21;20.30;99.90
9810;DHT22;4944;52.514;13.192;2023-07-29T11:30:51;20.30;99.90
9810;DHT22;4944;52.514;13.192;2023-07-29T11:33:19;20.20;99.90
9810;DHT22;4944;52.514;13.192;2023-07-29T11:35:47;20.70;99.90
9810;DHT22;4944;52.514;13.192;2023-07-29T11:38:15;20.70;99.90
9810;DHT22;4944;52.514;13.192;2023-07-29T11:40:42;20.40;99.90
9810;DHT22;4944;52.514;13.192;2023-07-29T11:43:09;20.30;99.90
9810;DHT22;4944;52.514;13.192;2023-07-29T11:45:43;19.80;99.90
9810;DHT22;4944;52.514;13.192;2023-07-29T11:48:12;19.60;99.90
9810;DHT22;4944;52.514;13.192;2023-07-29T11:50:39;20.10;99.90
9810;DHT22;4944;52.514;13.192;2023-07-29T11:53:06;19.70;99.90
9810;DHT22;4944;52.514;13.192;2023-07-29T11:55:33;19.80;99.90
9810;DHT22;4944;52.514;13.192;2023-07-29T11:58:01;19.90;99.90
9810;DHT22;4944;52.514;13.192;2023-07-29T12:00:28;20.50;99.90
9810;DHT22;4944;52.514;13.192;2023-07-29T12:02:56;20.10;99.90
9810;DHT22;4944;52.514;13.192;2023-07-29T12:05:25;20.60;99.90
9810;DHT22;4944;52.514;13.192;2023-07-29T12:07:52;20.30;99.90
9810;DHT22;4944;52.514;13.192;2023-07-29T12:10:19;20.30;99.90
9810;DHT22;4944;52.514;13.192;2023-07-29T12:12:48;20.20;99.90
9810;DHT22;4944;52.514;13.192;2023-07-29T12:15:23;20.10;99.90
9810;DHT22;4944;52.514;13.192;2023-07-29T12:17:53;20.10;99.90
9810;DHT22;4944;52.514;13.192;2023-07-29T12:20:20;20.10;99.90
9810;DHT22;4944;52.514;13.192;2023-07-29T12:22:53;20.40;99.90
9810;DHT22;4944;52.514;13.192;2023-07-29T12:25:21;20.40;99.90
9810;DHT22;4944;52.514;13.192;2023-07-29T12:27:48;20.70;99.90
9810;DHT22;4944;52.514;13.192;2023-07-29T12:30:15;20.50;99.90
9810;DHT22;4944;52.514;13.192;2023-07-29T12:32:44;20.60;99.90
9810;DHT22;4944;52.514;13.192;2023-07-29T12:35:11;20.70;99.90
9810;DHT22;4944;52.514;13.192;2023-07-29T12:37:38;20.70;99.90
9810;DHT22;4944;52.514;13.192;2023-07-29T12:40:21;20.90;99.90
9810;DHT22;4944;52.514;13.192;2023-07-29T12:42:48;20.90;99.90
9810;DHT22;4944;52.514;13.192;2023-07-29T12:45:16;21.10;99.90
9810;DHT22;4944;52.514;13.192;2023-07-29T12:47:43;21.40;99.90
9810;DHT22;4944;52.514;13.192;2023-07-29T12:50:10;21.40;99.90
9810;DHT22;4944;52.514;13.192;2023-07-29T12:52:37;21.60;99.90
9810;DHT22;4944;52.514;13.192;2023-07-29T12:55:05;21.60;99.90
9810;DHT22;4944;52.514;13.192;2023-07-29T12:57:35;21.80;99.90
9810;DHT22;4944;52.514;13.192;2023-07-29T13:00:03;22.00;99.90
9810;DHT22;4944;52.514;13.192;2023-07-29T13:02:30;22.00;99.90
9810;DHT22;4944;52.514;13.192;2023-07-29T13:04:56;21.90;99.90
9810;DHT22;4944;52.514;13.192;2023-07-29T13:07:23;21.70;99.90
9810;DHT22;4944;52.514;13.192;2023-07-29T13:09:50;21.70;99.90
9810;DHT22;4944;52.514;13.192;2023-07-29T13:12:17;21.70;99.90
9810;DHT22;4944;52.514;13.192;2023-07-29T13:14:45;21.80;99.90
9810;DHT22;4944;52.514;13.192;2023-07-29T13:17:12;22.00;99.90
9810;DHT22;4944;52.514;13.192;2023-07-29T13:19:39;22.10;99.90
9810;DHT22;4944;52.514;13.192;2023-07-29T13:22:06;22.20;99.90
9810;DHT22;4944;52.514;13.192;2023-07-29T13:24:33;22.40;99.90
9810;DHT22;4944;52.514;13.192;2023-07-29T13:27:00;22.40;99.90
9810;DHT22;4944;52.514;13.192;2023-07-29T13:29:26;22.50;99.90
9810;DHT22;4944;52.514;13.192;2023-07-29T13:31:55;22.70;99.90
9810;DHT22;4944;52.514;13.192;2023-07-29T13:34:22;23.00;99.90
9810;DHT22;4944;52.514;13.192;2023-07-29T13:36:48;23.00;99.90
9810;DHT22;4944;52.514;13.192;2023-07-29T13:39:15;23.00;99.90
9810;DHT22;4944;52.514;13.192;2023-07-29T13:41:42;22.80;99.90
9810;DHT22;4944;52.514;13.192;2023-07-29T13:44:09;22.80;99.90
9810;DHT22;4944;52.514;13.192;2023-07-29T13:46:36;22.80;99.90
9810;DHT22;4944;52.514;13.192;2023-07-29T13:49:04;22.70;99.90
9810;DHT22;4944;52.514;13.192;2023-07-29T13:51:31;22.70;99.90
9810;DHT22;4944;52.514;13.192;2023-07-29T13:53:58;22.80;99.90
9810;DHT22;4944;52.514;13.192;2023-07-29T13:56:25;22.80;99.90
9810;DHT22;4944;52.514;13.192;2023-07-29T13:58:51;23.00;99.90
9810;DHT22;4944;52.514;13.192;2023-07-29T14:01:18;23.10;99.90
9810;DHT22;4944;52.514;13.192;2023-07-29T14:03:45;23.20;99.90
9810;DHT22;4944;52.514;13.192;2023-07-29T14:06:13;23.40;99.90
9810;DHT22;4944;52.514;13.192;2023-07-29T14:08:40;23.40;99.90
9810;DHT22;4944;52.514;13.192;2023-07-29T14:11:07;23.20;99.90
9810;DHT22;4944;52.514;13.192;2023-07-29T14:13:34;23.20;99.90
9810;DHT22;4944;52.514;13.192;2023-07-29T14:16:01;23.10;99.90
9810;DHT22;4944;52.514;13.192;2023-07-29T14:18:29;23.00;99.90
9810;DHT22;4944;52.514;13.192;2023-07-29T14:20:57;22.90;99.90
9810;DHT22;4944;52.514;13.192;2023-07-29T14:23:25;22.90;99.90
9810;DHT22;4944;52.514;13.192;2023-07-29T14:25:52;23.00;99.90
9810;DHT22;4944;52.514;13.192;2023-07-29T14:28:19;23.20;99.90
9810;DHT22;4944;52.514;13.192;2023-07-29T14:30:46;23.30;99.90
9810;DHT22;4944;52.514;13.192;2023-07-29T14:33:13;23.30;99.90
9810;DHT22;4944;52.514;13.192;2023-07-29T14:35:40;23.40;99.90
9810;DHT22;4944;52.514;13.192;2023-07-29T14:38:07;23.50;99.90
9810;DHT22;4944;52.514;13.192;2023-07-29T14:40:35;23.40;99.90
9810;DHT22;4944;52.514;13.192;2023-07-29T14:43:02;23.20;99.90
9810;DHT22;4944;52.514;13.192;2023-07-29T14:45:29;23.10;99.90
9810;DHT22;4944;52.514;13.192;2023-07-29T14:47:56;22.90;99.90
9810;DHT22;4944;52.514;13.192;2023-07-29T14:50:22;22.90;99.90
9810;DHT22;4944;52.514;13.192;2023-07-29T14:52:49;22.90;99.90
9810;DHT22;4944;52.514;13.192;2023-07-29T14:55:16;22.90;99.90
9810;DHT22;4944;52.514;13.192;2023-07-29T14:57:44;23.20;99.90
9810;DHT22;4944;52.514;13.192;2023-07-29T15:00:12;23.30;99.90
9810;DHT22;4944;52.514;13.192;2023-07-29T15:02:40;23.50;99.90
9810;DHT22;4944;52.514;13.192;2023-07-29T15:05:07;23.40;99.90
9810;DHT22;4944;52.514;13.192;2023-07-29T15:07:34;23.30;99.90
9810;DHT22;4944;52.514;13.192;2023-07-29T15:10:01;23.10;99.90
9810;DHT22;4944;52.514;13.192;2023-07-29T15:12:28;23.00;99.90
9810;DHT22;4944;52.514;13.192;2023-07-29T15:14:56;22.80;99.90
9810;DHT22;4944;52.514;13.192;2023-07-29T15:17:23;22.70;99.90
9810;DHT22;4944;52.514;13.192;2023-07-29T15:19:50;22.60;99.90
9810;DHT22;4944;52.514;13.192;2023-07-29T15:22:17;22.10;99.90
9810;DHT22;4944;52.514;13.192;2023-07-29T15:24:43;21.10;99.90
9810;DHT22;4944;52.514;13.192;2023-07-29T15:27:12;20.00;99.90
9810;DHT22;4944;52.514;13.192;2023-07-29T15:29:38;19.60;99.90
9810;DHT22;4944;52.514;13.192;2023-07-29T15:32:07;19.10;99.90
9810;DHT22;4944;52.514;13.192;2023-07-29T15:34:34;18.50;99.90
9810;DHT22;4944;52.514;13.192;2023-07-29T15:37:02;18.40;99.90
9810;DHT22;4944;52.514;13.192;2023-07-29T15:39:29;18.30;99.90
9810;DHT22;4944;52.514;13.192;2023-07-29T15:41:56;18.20;99.90
9810;DHT22;4944;52.514;13.192;2023-07-29T15:44:23;18.20;99.90
9810;DHT22;4944;52.514;13.192;2023-07-29T15:46:50;18.20;99.90
9810;DHT22;4944;52.514;13.192;2023-07-29T15:49:19;18.40;99.90